sensor_id;sensor_type;location;lat;lon;timestamp;pressure;altitude;pressure_sealevel;temperature;humidity
57568;BME280;43403;51.948;5.922;2022-11-30T00:01:17;102224.44;;;8.54;100.00
57568;BME280;43403;51.948;5.922;2022-11-30T00:03:44;102220.13;;;8.52;100.00
57568;BME280;43403;51.948;5.922;2022-11-30T00:06:14;102226.59;;;8.47;100.00
57568;BME280;43403;51.948;5.922;2022-11-30T00:08:41;102226.59;;;8.47;100.00
57568;BME280;43403;51.948;5.922;2022-11-30T00:11:12;102227.53;;;8.46;100.00
57568;BME280;43403;51.948;5.922;2022-11-30T00:13:38;102225.97;;;8.43;100.00
57568;BME280;43403;51.948;5.922;2022-11-30T00:16:05;102223.34;;;8.43;100.00
57568;BME280;43403;51.948;5.922;2022-11-30T00:18:32;102222.50;;;8.43;100.00
57568;BME280;43403;51.948;5.922;2022-11-30T00:21:00;102222.59;;;8.41;100.00
57568;BME280;43403;51.948;5.922;2022-11-30T00:23:34;102211.00;;;8.45;100.00
57568;BME280;43403;51.948;5.922;2022-11-30T00:26:03;102209.31;;;8.44;100.00
57568;BME280;43403;51.948;5.922;2022-11-30T00:28:30;102215.41;;;8.45;100.00
57568;BME280;43403;51.948;5.922;2022-11-30T00:30:59;102221.47;;;8.45;100.00
57568;BME280;43403;51.948;5.922;2022-11-30T00:33:27;102225.13;;;8.43;100.00
57568;BME280;43403;51.948;5.922;2022-11-30T00:36:17;102232.09;;;8.42;100.00
57568;BME280;43403;51.948;5.922;2022-11-30T00:38:44;102223.78;;;8.36;100.00
57568;BME280;43403;51.948;5.922;2022-11-30T00:41:11;102228.38;;;8.32;100.00
57568;BME280;43403;51.948;5.922;2022-11-30T00:43:38;102228.47;;;8.30;100.00
57568;BME280;43403;51.948;5.922;2022-11-30T00:46:04;102229.59;;;8.26;100.00
57568;BME280;43403;51.948;5.922;2022-11-30T00:48:31;102230.63;;;8.24;100.00
57568;BME280;43403;51.948;5.922;2022-11-30T00:50:57;102234.09;;;8.24;100.00
57568;BME280;43403;51.948;5.922;2022-11-30T00:53:24;102238.41;;;8.25;100.00
57568;BME280;43403;51.948;5.922;2022-11-30T00:55:50;102237.66;;;8.23;100.00
57568;BME280;43403;51.948;5.922;2022-11-30T00:58:16;102234.28;;;8.21;100.00
57568;BME280;43403;51.948;5.922;2022-11-30T01:00:43;102234.28;;;8.21;100.00
57568;BME280;43403;51.948;5.922;2022-11-30T01:03:10;102230.72;;;8.22;100.00
57568;BME280;43403;51.948;5.922;2022-11-30T01:05:37;102231.69;;;8.21;100.00
57568;BME280;43403;51.948;5.922;2022-11-30T01:08:06;102229.81;;;8.23;100.00
57568;BME280;43403;51.948;5.922;2022-11-30T01:10:33;102239.41;;;8.23;100.00
57568;BME280;43403;51.948;5.922;2022-11-30T01:13:00;102243.97;;;8.19;100.00
57568;BME280;43403;51.948;5.922;2022-11-30T01:15:27;102236.34;;;8.16;100.00
57568;BME280;43403;51.948;5.922;2022-11-30T01:17:53;102233.09;;;8.12;100.00
57568;BME280;43403;51.948;5.922;2022-11-30T01:20:19;102239.88;;;8.15;100.00
57568;BME280;43403;51.948;5.922;2022-11-30T01:22:46;102237.38;;;8.14;100.00
57568;BME280;43403;51.948;5.922;2022-11-30T01:25:12;102238.22;;;8.14;100.00
57568;BME280;43403;51.948;5.922;2022-11-30T01:27:39;102245.31;;;8.12;100.00
57568;BME280;43403;51.948;5.922;2022-11-30T01:30:06;102244.19;;;8.16;100.00
57568;BME280;43403;51.948;5.922;2022-11-30T01:32:32;102248.69;;;8.14;100.00
57568;BME280;43403;51.948;5.922;2022-11-30T01:34:59;102237.56;;;8.10;100.00
57568;BME280;43403;51.948;5.922;2022-11-30T01:37:27;102233.09;;;8.12;100.00
57568;BME280;43403;51.948;5.922;2022-11-30T01:39:54;102239.53;;;8.07;100.00
57568;BME280;43403;51.948;5.922;2022-11-30T01:42:21;102237.00;;;8.05;100.00
57568;BME280;43403;51.948;5.922;2022-11-30T01:44:57;102240.19;;;8.10;100.00
57568;BME280;43403;51.948;5.922;2022-11-30T01:47:33;102244.56;;;8.10;100.00
57568;BME280;43403;51.948;5.922;2022-11-30T01:50:16;102234.22;;;8.08;100.00
57568;BME280;43403;51.948;5.922;2022-11-30T01:52:47;102242.22;;;8.05;100.00
57568;BME280;43403;51.948;5.922;2022-11-30T01:55:23;102233.56;;;8.05;100.00
57568;BME280;43403;51.948;5.922;2022-11-30T01:58:04;102239.00;;;8.02;100.00
57568;BME280;43403;51.948;5.922;2022-11-30T02:00:31;102242.06;;;7.94;100.00
57568;BME280;43403;51.948;5.922;2022-11-30T02:03:04;102238.41;;;7.97;100.00
57568;BME280;43403;51.948;5.922;2022-11-30T02:05:38;102243.81;;;7.93;100.00
57568;BME280;43403;51.948;5.922;2022-11-30T02:08:06;102249.16;;;7.92;100.00
57568;BME280;43403;51.948;5.922;2022-11-30T02:10:34;102244.56;;;7.96;100.00
57568;BME280;43403;51.948;5.922;2022-11-30T02:16:10;102237.84;;;7.91;100.00
57568;BME280;43403;51.948;5.922;2022-11-30T02:27:10;102253.06;;;7.99;100.00
57568;BME280;43403;51.948;5.922;2022-11-30T02:29:46;102255.69;;;7.99;100.00
57568;BME280;43403;51.948;5.922;2022-11-30T02:32:25;102249.72;;;7.97;100.00
57568;BME280;43403;51.948;5.922;2022-11-30T02:34:55;102251.56;;;7.95;100.00
57568;BME280;43403;51.948;5.922;2022-11-30T02:37:23;102248.22;;;7.93;100.00
57568;BME280;43403;51.948;5.922;2022-11-30T02:39:50;102248.50;;;7.88;100.00
57568;BME280;43403;51.948;5.922;2022-11-30T02:42:17;102243.38;;;7.87;100.00
57568;BME280;43403;51.948;5.922;2022-11-30T02:44:46;102252.69;;;7.91;100.00
57568;BME280;43403;51.948;5.922;2022-11-30T02:47:21;102257.28;;;7.87;100.00
57568;BME280;43403;51.948;5.922;2022-11-30T02:49:50;102259.22;;;7.84;100.00
57568;BME280;43403;51.948;5.922;2022-11-30T02:52:22;102265.97;;;7.88;100.00
57568;BME280;43403;51.948;5.922;2022-11-30T02:54:49;102262.03;;;7.81;100.00
57568;BME280;43403;51.948;5.922;2022-11-30T02:57:15;102260.16;;;7.83;100.00
57568;BME280;43403;51.948;5.922;2022-11-30T02:59:42;102268.09;;;7.81;100.00
57568;BME280;43403;51.948;5.922;2022-11-30T03:02:08;102266.53;;;7.79;100.00
57568;BME280;43403;51.948;5.922;2022-11-30T03:04:35;102265.03;;;7.75;100.00
57568;BME280;43403;51.948;5.922;2022-11-30T03:07:01;102266.69;;;7.76;100.00
57568;BME280;43403;51.948;5.922;2022-11-30T03:09:27;102263.41;;;7.72;100.00
57568;BME280;43403;51.948;5.922;2022-11-30T03:11:54;102264.28;;;7.72;100.00
57568;BME280;43403;51.948;5.922;2022-11-30T03:14:20;102266.97;;;7.71;100.00
57568;BME280;43403;51.948;5.922;2022-11-30T03:16:46;102267.91;;;7.70;100.00
57568;BME280;43403;51.948;5.922;2022-11-30T03:19:13;102268.84;;;7.69;100.00
57568;BME280;43403;51.948;5.922;2022-11-30T03:21:39;102265.56;;;7.65;100.00
57568;BME280;43403;51.948;5.922;2022-11-30T03:24:06;102266.59;;;7.63;100.00
57568;BME280;43403;51.948;5.922;2022-11-30T03:26:33;102265.84;;;7.61;100.00
57568;BME280;43403;51.948;5.922;2022-11-30T03:28:59;102271.09;;;7.61;100.00
57568;BME280;43403;51.948;5.922;2022-11-30T03:31:25;102283.09;;;7.63;100.00
57568;BME280;43403;51.948;5.922;2022-11-30T03:33:52;102285.81;;;7.62;100.00
57568;BME280;43403;51.948;5.922;2022-11-30T03:36:18;102281.53;;;7.61;100.00
57568;BME280;43403;51.948;5.922;2022-11-30T03:38:46;102281.63;;;7.59;100.00
57568;BME280;43403;51.948;5.922;2022-11-30T03:41:15;102275.34;;;7.62;100.00
57568;BME280;43403;51.948;5.922;2022-11-30T03:43:43;102273.94;;;7.56;100.00
57568;BME280;43403;51.948;5.922;2022-11-30T03:46:10;102282.97;;;7.50;100.00
57568;BME280;43403;51.948;5.922;2022-11-30T03:48:37;102282.59;;;7.42;100.00
57568;BME280;43403;51.948;5.922;2022-11-30T03:51:04;102293.22;;;7.39;100.00
57568;BME280;43403;51.948;5.922;2022-11-30T03:53:30;102288.47;;;7.31;100.00
57568;BME280;43403;51.948;5.922;2022-11-30T03:55:59;102281.75;;;7.27;100.00
57568;BME280;43403;51.948;5.922;2022-11-30T03:58:43;102286.53;;;7.19;100.00
57568;BME280;43403;51.948;5.922;2022-11-30T04:01:12;102292.78;;;7.17;100.00
57568;BME280;43403;51.948;5.922;2022-11-30T04:03:39;102288.19;;;7.06;100.00
57568;BME280;43403;51.948;5.922;2022-11-30T04:06:09;102286.69;;;7.02;100.00
57568;BME280;43403;51.948;5.922;2022-11-30T04:08:36;102287.75;;;6.98;100.00
57568;BME280;43403;51.948;5.922;2022-11-30T04:11:05;102287.94;;;6.95;100.00
57568;BME280;43403;51.948;5.922;2022-11-30T04:13:34;102284.81;;;6.88;100.00
57568;BME280;43403;51.948;5.922;2022-11-30T04:16:01;102282.69;;;6.80;100.00
57568;BME280;43403;51.948;5.922;2022-11-30T04:18:29;102281.81;;;6.80;100.00
57568;BME280;43403;51.948;5.922;2022-11-30T04:20:57;102291.69;;;6.75;100.00
57568;BME280;43403;51.948;5.922;2022-11-30T04:23:25;102291.00;;;6.71;100.00
57568;BME280;43403;51.948;5.922;2022-11-30T04:25:54;102292.34;;;6.62;100.00
57568;BME280;43403;51.948;5.922;2022-11-30T04:28:21;102285.72;;;6.57;100.00
57568;BME280;43403;51.948;5.922;2022-11-30T04:30:47;102276.47;;;6.51;100.00
57568;BME280;43403;51.948;5.922;2022-11-30T04:33:15;102280.75;;;6.52;100.00
57568;BME280;43403;51.948;5.922;2022-11-30T04:35:44;102282.94;;;6.44;100.00
57568;BME280;43403;51.948;5.922;2022-11-30T04:38:12;102277.03;;;6.40;100.00
57568;BME280;43403;51.948;5.922;2022-11-30T04:40:39;102277.13;;;6.39;100.00
57568;BME280;43403;51.948;5.922;2022-11-30T04:43:06;102281.91;;;6.30;100.00
57568;BME280;43403;51.948;5.922;2022-11-30T04:45:33;102278.06;;;6.22;100.00
57568;BME280;43403;51.948;5.922;2022-11-30T04:48:02;102277.44;;;6.17;100.00
57568;BME280;43403;51.948;5.922;2022-11-30T04:50:28;102278.78;;;6.08;100.00
57568;BME280;43403;51.948;5.922;2022-11-30T04:52:54;102276.66;;;5.99;100.00
57568;BME280;43403;51.948;5.922;2022-11-30T04:55:21;102275.97;;;5.95;100.00
57568;BME280;43403;51.948;5.922;2022-11-30T04:57:48;102269.53;;;5.85;100.00
57568;BME280;43403;51.948;5.922;2022-11-30T05:00:15;102274.00;;;5.83;100.00
57568;BME280;43403;51.948;5.922;2022-11-30T05:02:42;102276.22;;;5.73;100.00
57568;BME280;43403;51.948;5.922;2022-11-30T05:05:17;102267.81;;;5.68;100.00
57568;BME280;43403;51.948;5.922;2022-11-30T05:07:43;102273.06;;;5.66;100.00
57568;BME280;43403;51.948;5.922;2022-11-30T05:10:10;102275.59;;;5.68;100.00
57568;BME280;43403;51.948;5.922;2022-11-30T05:12:36;102273.94;;;5.67;100.00
57568;BME280;43403;51.948;5.922;2022-11-30T05:15:03;102277.63;;;5.63;100.00
57568;BME280;43403;51.948;5.922;2022-11-30T05:17:29;102274.47;;;5.56;100.00
57568;BME280;43403;51.948;5.922;2022-11-30T05:19:56;102280.44;;;5.58;100.00
57568;BME280;43403;51.948;5.922;2022-11-30T05:22:22;102264.44;;;5.48;100.00
57568;BME280;43403;51.948;5.922;2022-11-30T05:24:49;102277.63;;;5.45;100.00
57568;BME280;43403;51.948;5.922;2022-11-30T05:27:15;102280.31;;;5.44;100.00
57568;BME280;43403;51.948;5.922;2022-11-30T05:29:47;102277.84;;;5.41;100.00
57568;BME280;43403;51.948;5.922;2022-11-30T05:32:14;102276.38;;;5.35;100.00
57568;BME280;43403;51.948;5.922;2022-11-30T05:34:40;102287.81;;;5.32;100.00
57568;BME280;43403;51.948;5.922;2022-11-30T05:37:17;102288.81;;;5.30;100.00
57568;BME280;43403;51.948;5.922;2022-11-30T05:39:43;102289.72;;;5.29;100.00
57568;BME280;43403;51.948;5.922;2022-11-30T05:42:10;102289.88;;;5.26;100.00
57568;BME280;43403;51.948;5.922;2022-11-30T05:44:36;102292.56;;;5.24;100.00
57568;BME280;43403;51.948;5.922;2022-11-30T05:47:03;102293.47;;;5.23;100.00
57568;BME280;43403;51.948;5.922;2022-11-30T05:49:29;102300.50;;;5.21;100.00
57568;BME280;43403;51.948;5.922;2022-11-30T05:51:55;102308.53;;;5.17;100.00
57568;BME280;43403;51.948;5.922;2022-11-30T05:54:22;102310.38;;;5.14;100.00
57568;BME280;43403;51.948;5.922;2022-11-30T05:56:48;102305.31;;;5.11;100.00
57568;BME280;43403;51.948;5.922;2022-11-30T05:59:20;102310.50;;;5.11;100.00
57568;BME280;43403;51.948;5.922;2022-11-30T06:01:46;102311.75;;;5.04;100.00
57568;BME280;43403;51.948;5.922;2022-11-30T06:04:13;102318.84;;;5.01;100.00
57568;BME280;43403;51.948;5.922;2022-11-30T06:06:39;102324.09;;;4.99;100.00
57568;BME280;43403;51.948;5.922;2022-11-30T06:09:06;102323.50;;;4.94;100.00
57568;BME280;43403;51.948;5.922;2022-11-30T06:11:32;102320.09;;;4.92;100.00
57568;BME280;43403;51.948;5.922;2022-11-30T06:13:58;102325.31;;;4.92;100.00
57568;BME280;43403;51.948;5.922;2022-11-30T06:16:25;102326.47;;;4.86;100.00
57568;BME280;43403;51.948;5.922;2022-11-30T06:18:51;102329.25;;;4.82;100.00
57568;BME280;43403;51.948;5.922;2022-11-30T06:21:18;102325.00;;;4.81;100.00
57568;BME280;43403;51.948;5.922;2022-11-30T06:23:50;102325.81;;;4.81;100.00
57568;BME280;43403;51.948;5.922;2022-11-30T06:26:16;102330.31;;;4.78;100.00
57568;BME280;43403;51.948;5.922;2022-11-30T06:28:42;102328.78;;;4.73;100.00
57568;BME280;43403;51.948;5.922;2022-11-30T06:31:13;102323.53;;;4.75;100.00
57568;BME280;43403;51.948;5.922;2022-11-30T06:33:39;102322.81;;;4.71;100.00
57568;BME280;43403;51.948;5.922;2022-11-30T06:36:06;102330.63;;;4.71;100.00
57568;BME280;43403;51.948;5.922;2022-11-30T06:38:33;102334.28;;;4.67;100.00
57568;BME280;43403;51.948;5.922;2022-11-30T06:41:04;102330.56;;;4.73;100.00
57568;BME280;43403;51.948;5.922;2022-11-30T06:43:35;102332.22;;;4.74;100.00
57568;BME280;43403;51.948;5.922;2022-11-30T06:46:03;102333.44;;;4.67;100.00
57568;BME280;43403;51.948;5.922;2022-11-30T06:48:29;102339.53;;;4.66;100.00
57568;BME280;43403;51.948;5.922;2022-11-30T06:50:56;102346.44;;;4.67;100.00
57568;BME280;43403;51.948;5.922;2022-11-30T06:53:23;102347.41;;;4.64;100.00
57568;BME280;43403;51.948;5.922;2022-11-30T06:55:51;102344.88;;;4.63;100.00
57568;BME280;43403;51.948;5.922;2022-11-30T06:58:17;102340.59;;;4.62;100.00
57568;BME280;43403;51.948;5.922;2022-11-30T07:00:44;102348.50;;;4.59;100.00
57568;BME280;43403;51.948;5.922;2022-11-30T07:03:11;102353.03;;;4.55;100.00
57568;BME280;43403;51.948;5.922;2022-11-30T07:05:43;102348.66;;;4.55;100.00
57568;BME280;43403;51.948;5.922;2022-11-30T07:08:11;102355.53;;;4.56;100.00
57568;BME280;43403;51.948;5.922;2022-11-30T07:10:43;102346.72;;;4.61;100.00
57568;BME280;43403;51.948;5.922;2022-11-30T07:13:15;102349.16;;;4.64;100.00
57568;BME280;43403;51.948;5.922;2022-11-30T07:15:44;102358.50;;;4.68;100.00
57568;BME280;43403;51.948;5.922;2022-11-30T07:18:11;102363.75;;;4.66;100.00
57568;BME280;43403;51.948;5.922;2022-11-30T07:20:37;102373.03;;;4.72;100.00
57568;BME280;43403;51.948;5.922;2022-11-30T07:23:04;102376.50;;;4.72;100.00
57568;BME280;43403;51.948;5.922;2022-11-30T07:25:50;102380.72;;;4.75;100.00
57568;BME280;43403;51.948;5.922;2022-11-30T07:28:42;102384.84;;;4.79;100.00
57568;BME280;43403;51.948;5.922;2022-11-30T07:31:19;102386.47;;;4.82;100.00
57568;BME280;43403;51.948;5.922;2022-11-30T07:33:49;102397.72;;;4.82;100.00
57568;BME280;43403;51.948;5.922;2022-11-30T07:36:17;102396.09;;;4.80;100.00
57568;BME280;43403;51.948;5.922;2022-11-30T07:38:43;102398.63;;;4.81;100.00
57568;BME280;43403;51.948;5.922;2022-11-30T07:41:11;102396.72;;;4.85;100.00
57568;BME280;43403;51.948;5.922;2022-11-30T07:43:37;102396.72;;;4.85;100.00
57568;BME280;43403;51.948;5.922;2022-11-30T07:46:04;102402.78;;;4.85;100.00
57568;BME280;43403;51.948;5.922;2022-11-30T07:48:31;102403.59;;;4.86;100.00
57568;BME280;43403;51.948;5.922;2022-11-30T07:51:06;102409.38;;;4.92;100.00
57568;BME280;43403;51.948;5.922;2022-11-30T07:53:33;102416.41;;;4.90;100.00
57568;BME280;43403;51.948;5.922;2022-11-30T07:56:04;102416.06;;;4.98;100.00
57568;BME280;43403;51.948;5.922;2022-11-30T07:58:31;102420.34;;;4.99;100.00
57568;BME280;43403;51.948;5.922;2022-11-30T08:01:06;102418.22;;;5.07;100.00
57568;BME280;43403;51.948;5.922;2022-11-30T08:03:34;102419.75;;;5.11;100.00
57568;BME280;43403;51.948;5.922;2022-11-30T08:06:06;102413.72;;;5.11;100.00
57568;BME280;43403;51.948;5.922;2022-11-30T08:08:35;102417.03;;;5.14;100.00
57568;BME280;43403;51.948;5.922;2022-11-30T08:11:04;102424.06;;;5.12;100.00
57568;BME280;43403;51.948;5.922;2022-11-30T08:13:31;102428.31;;;5.13;100.00
57568;BME280;43403;51.948;5.922;2022-11-30T08:16:05;102439.38;;;5.19;100.00
57568;BME280;43403;51.948;5.922;2022-11-30T08:18:32;102437.47;;;5.22;100.00
57568;BME280;43403;51.948;5.922;2022-11-30T08:21:01;102442.25;;;5.31;100.00
57568;BME280;43403;51.948;5.922;2022-11-30T08:23:31;102447.09;;;5.39;100.00
57568;BME280;43403;51.948;5.922;2022-11-30T08:26:09;102441.59;;;5.45;100.00
57568;BME280;43403;51.948;5.922;2022-11-30T08:28:36;102441.66;;;5.44;100.00
57568;BME280;43403;51.948;5.922;2022-11-30T08:31:05;102436.31;;;5.47;100.00
57568;BME280;43403;51.948;5.922;2022-11-30T08:33:34;102441.31;;;5.51;100.00
57568;BME280;43403;51.948;5.922;2022-11-30T08:38:38;102446.06;;;5.61;100.00
57568;BME280;43403;51.948;5.922;2022-11-30T08:41:06;102445.06;;;5.63;100.00
57568;BME280;43403;51.948;5.922;2022-11-30T08:43:34;102450.28;;;5.63;100.00
57568;BME280;43403;51.948;5.922;2022-11-30T08:46:02;102448.97;;;5.72;100.00
57568;BME280;43403;51.948;5.922;2022-11-30T08:48:47;102443.63;;;5.75;100.00
57568;BME280;43403;51.948;5.922;2022-11-30T08:51:15;102451.06;;;5.83;100.00
57568;BME280;43403;51.948;5.922;2022-11-30T08:53:42;102450.91;;;5.86;100.00
57568;BME280;43403;51.948;5.922;2022-11-30T08:56:17;102444.38;;;5.96;100.00
57568;BME280;43403;51.948;5.922;2022-11-30T08:58:45;102455.47;;;6.00;100.00
57568;BME280;43403;51.948;5.922;2022-11-30T09:01:13;102456.16;;;6.03;100.00
57568;BME280;43403;51.948;5.922;2022-11-30T09:03:41;102453.94;;;6.13;100.00
57568;BME280;43403;51.948;5.922;2022-11-30T09:06:13;102451.19;;;6.16;100.00
57568;BME280;43403;51.948;5.922;2022-11-30T09:08:42;102455.25;;;6.22;100.00
57568;BME280;43403;51.948;5.922;2022-11-30T09:11:13;102461.81;;;6.29;100.00
57568;BME280;43403;51.948;5.922;2022-11-30T09:13:41;102464.19;;;6.33;100.00
57568;BME280;43403;51.948;5.922;2022-11-30T09:16:08;102464.88;;;6.37;100.00
57568;BME280;43403;51.948;5.922;2022-11-30T09:18:34;102466.41;;;6.41;100.00
57568;BME280;43403;51.948;5.922;2022-11-30T09:21:05;102472.97;;;6.48;100.00
57568;BME280;43403;51.948;5.922;2022-11-30T09:23:32;102473.75;;;6.50;100.00
57568;BME280;43403;51.948;5.922;2022-11-30T09:26:00;102464.44;;;6.62;100.00
57568;BME280;43403;51.948;5.922;2022-11-30T09:28:27;102464.91;;;6.70;100.00
57568;BME280;43403;51.948;5.922;2022-11-30T09:31:12;102471.63;;;6.75;100.00
57568;BME280;43403;51.948;5.922;2022-11-30T09:33:39;102470.63;;;6.77;100.00
57568;BME280;43403;51.948;5.922;2022-11-30T09:36:08;102477.28;;;6.83;100.00
57568;BME280;43403;51.948;5.922;2022-11-30T09:38:35;102474.69;;;6.83;100.00
57568;BME280;43403;51.948;5.922;2022-11-30T09:47:27;102476.72;;;7.09;100.00
57568;BME280;43403;51.948;5.922;2022-11-30T09:50:02;102479.16;;;7.12;100.00
57568;BME280;43403;51.948;5.922;2022-11-30T09:52:40;102478.00;;;7.18;100.00
57568;BME280;43403;51.948;5.922;2022-11-30T09:55:09;102471.69;;;7.22;100.00
57568;BME280;43403;51.948;5.922;2022-11-30T09:57:45;102468.91;;;7.25;100.00
57568;BME280;43403;51.948;5.922;2022-11-30T10:00:18;102466.94;;;7.29;100.00
57568;BME280;43403;51.948;5.922;2022-11-30T10:02:48;102463.25;;;7.33;100.00
57568;BME280;43403;51.948;5.922;2022-11-30T10:05:22;102455.09;;;7.39;100.00
57568;BME280;43403;51.948;5.922;2022-11-30T10:10:40;102455.09;;;7.39;100.00
57568;BME280;43403;51.948;5.922;2022-11-30T10:16:09;102448.03;;;7.41;100.00
57568;BME280;43403;51.948;5.922;2022-11-30T10:24:47;102449.69;;;7.42;100.00
57568;BME280;43403;51.948;5.922;2022-11-30T10:27:48;102446.16;;;7.43;100.00
57568;BME280;43403;51.948;5.922;2022-11-30T10:30:23;102444.53;;;7.41;100.00
57568;BME280;43403;51.948;5.922;2022-11-30T10:32:55;102444.66;;;7.39;100.00
57568;BME280;43403;51.948;5.922;2022-11-30T10:35:34;102441.09;;;7.40;100.00
57568;BME280;43403;51.948;5.922;2022-11-30T10:38:12;102443.72;;;7.40;100.00
57568;BME280;43403;51.948;5.922;2022-11-30T10:40:46;102436.81;;;7.39;100.00
57568;BME280;43403;51.948;5.922;2022-11-30T10:43:31;102434.78;;;7.28;100.00
57568;BME280;43403;51.948;5.922;2022-11-30T10:46:03;102433.63;;;7.34;100.00
57568;BME280;43403;51.948;5.922;2022-11-30T10:48:39;102432.78;;;7.33;100.00
57568;BME280;43403;51.948;5.922;2022-11-30T10:51:09;102432.69;;;7.35;100.00
57568;BME280;43403;51.948;5.922;2022-11-30T10:53:36;102435.41;;;7.33;100.00
57568;BME280;43403;51.948;5.922;2022-11-30T10:56:09;102434.28;;;7.38;100.00
57568;BME280;43403;51.948;5.922;2022-11-30T10:58:39;102434.63;;;7.47;100.00
57568;BME280;43403;51.948;5.922;2022-11-30T11:01:28;102436.88;;;7.53;100.00
57568;BME280;43403;51.948;5.922;2022-11-30T11:04:25;102430.53;;;7.58;100.00
57568;BME280;43403;51.948;5.922;2022-11-30T11:07:07;102427.78;;;7.61;100.00
57568;BME280;43403;51.948;5.922;2022-11-30T11:09:39;102425.63;;;7.67;100.00
57568;BME280;43403;51.948;5.922;2022-11-30T11:12:16;102425.03;;;7.78;100.00
57568;BME280;43403;51.948;5.922;2022-11-30T11:14:44;102426.53;;;7.82;100.00
57568;BME280;43403;51.948;5.922;2022-11-30T11:19:44;102430.22;;;7.94;100.00
57568;BME280;43403;51.948;5.922;2022-11-30T11:24:38;102420.13;;;8.02;100.00
57568;BME280;43403;51.948;5.922;2022-11-30T11:27:04;102420.69;;;8.07;100.00
57568;BME280;43403;51.948;5.922;2022-11-30T11:29:34;102426.97;;;8.19;100.00
57568;BME280;43403;51.948;5.922;2022-11-30T11:32:06;102433.06;;;8.20;100.00
57568;BME280;43403;51.948;5.922;2022-11-30T11:34:35;102428.00;;;8.17;100.00
57568;BME280;43403;51.948;5.922;2022-11-30T11:39:31;102423.34;;;8.36;100.00
57568;BME280;43403;51.948;5.922;2022-11-30T11:41:59;102421.72;;;8.49;100.00
57568;BME280;43403;51.948;5.922;2022-11-30T11:44:26;102426.91;;;8.64;100.00
57568;BME280;43403;51.948;5.922;2022-11-30T11:47:02;102423.00;;;8.71;100.00
57568;BME280;43403;51.948;5.922;2022-11-30T11:49:34;102425.16;;;8.79;100.00
57568;BME280;43403;51.948;5.922;2022-11-30T11:54:52;102431.41;;;8.76;100.00
57568;BME280;43403;51.948;5.922;2022-11-30T11:57:31;102419.06;;;8.64;100.00
57568;BME280;43403;51.948;5.922;2022-11-30T12:00:05;102428.03;;;8.74;100.00
57568;BME280;43403;51.948;5.922;2022-11-30T12:05:40;102422.72;;;8.76;100.00
57568;BME280;43403;51.948;5.922;2022-11-30T12:11:11;102425.22;;;8.77;100.00
57568;BME280;43403;51.948;5.922;2022-11-30T12:13:41;102424.41;;;8.77;100.00
57568;BME280;43403;51.948;5.922;2022-11-30T12:16:16;102428.28;;;8.84;100.00
57568;BME280;43403;51.948;5.922;2022-11-30T12:19:02;102427.03;;;8.77;100.00
57568;BME280;43403;51.948;5.922;2022-11-30T12:30:34;102433.81;;;8.79;100.00
57568;BME280;43403;51.948;5.922;2022-11-30T12:33:32;102435.78;;;8.76;100.00
57568;BME280;43403;51.948;5.922;2022-11-30T12:36:13;102429.53;;;8.78;100.00
57568;BME280;43403;51.948;5.922;2022-11-30T12:42:29;102425.63;;;8.71;100.00
57568;BME280;43403;51.948;5.922;2022-11-30T12:51:16;102431.31;;;8.78;100.00
57568;BME280;43403;51.948;5.922;2022-11-30T12:54:06;102432.25;;;8.77;100.00
57568;BME280;43403;51.948;5.922;2022-11-30T12:56:43;102435.59;;;8.79;100.00
57568;BME280;43403;51.948;5.922;2022-11-30T12:59:14;102433.25;;;8.74;100.00
57568;BME280;43403;51.948;5.922;2022-11-30T13:04:35;102436.34;;;8.81;100.00
57568;BME280;43403;51.948;5.922;2022-11-30T13:07:06;102447.13;;;8.76;100.00
57568;BME280;43403;51.948;5.922;2022-11-30T13:10:12;102449.81;;;8.75;100.00
57568;BME280;43403;51.948;5.922;2022-11-30T13:12:33;102443.94;;;8.71;100.00
57568;BME280;43403;51.948;5.922;2022-11-30T13:15:08;102447.22;;;8.75;100.00
57568;BME280;43403;51.948;5.922;2022-11-30T13:17:41;102444.03;;;8.69;100.00
57568;BME280;43403;51.948;5.922;2022-11-30T13:22:59;102435.72;;;8.63;100.00
57568;BME280;43403;51.948;5.922;2022-11-30T13:25:55;102439.91;;;8.65;100.00
57568;BME280;43403;51.948;5.922;2022-11-30T13:41:43;102443.66;;;8.47;100.00
57568;BME280;43403;51.948;5.922;2022-11-30T13:44:33;102445.81;;;8.55;100.00
57568;BME280;43403;51.948;5.922;2022-11-30T13:47:01;102446.00;;;8.51;100.00
57568;BME280;43403;51.948;5.922;2022-11-30T13:49:33;102446.00;;;8.51;100.00
57568;BME280;43403;51.948;5.922;2022-11-30T13:52:02;102441.31;;;8.42;100.00
57568;BME280;43403;51.948;5.922;2022-11-30T13:54:50;102451.28;;;8.36;100.00
57568;BME280;43403;51.948;5.922;2022-11-30T13:59:53;102448.66;;;8.36;100.00
57568;BME280;43403;51.948;5.922;2022-11-30T14:05:51;102453.81;;;8.37;100.00
57568;BME280;43403;51.948;5.922;2022-11-30T14:10:49;102464.06;;;8.40;100.00
57568;BME280;43403;51.948;5.922;2022-11-30T14:15:55;102453.06;;;8.35;100.00
57568;BME280;43403;51.948;5.922;2022-11-30T14:18:29;102455.66;;;8.35;100.00
57568;BME280;43403;51.948;5.922;2022-11-30T14:21:01;102459.94;;;8.36;100.00
57568;BME280;43403;51.948;5.922;2022-11-30T14:26:07;102460.97;;;8.34;100.00
57568;BME280;43403;51.948;5.922;2022-11-30T14:28:46;102465.38;;;8.33;100.00
57568;BME280;43403;51.948;5.922;2022-11-30T14:31:20;102469.75;;;8.32;100.00
57568;BME280;43403;51.948;5.922;2022-11-30T14:33:56;102472.38;;;8.32;100.00
57568;BME280;43403;51.948;5.922;2022-11-30T14:36:26;102470.78;;;8.30;100.00
57568;BME280;43403;51.948;5.922;2022-11-30T14:38:57;102470.88;;;8.28;100.00
57568;BME280;43403;51.948;5.922;2022-11-30T14:41:27;102473.31;;;8.31;100.00
57568;BME280;43403;51.948;5.922;2022-11-30T14:46:29;102482.00;;;8.32;100.00
57568;BME280;43403;51.948;5.922;2022-11-30T14:49:10;102493.19;;;8.34;100.00